Terminal Aerodrome Forecast
Issued by NWS

Home | Current Version | Previous Version | Text Only | Print | Product List | Glossary On
Versions: 1 2 3 4 5 6 7 8 9 10 11 12 13 14 15 16 17 18 19 20 21 22 23 24
000
FTUS43 KAPX 202300
TAFPLN
TAF
KPLN 202320Z 2100/2124 VRB03KT P6SM VCSH OVC008
     FM210300 VRB03KT 5SM BR OVC006
     FM210600 00000KT 1SM BR OVC003
     FM210900 00000KT 1/4SM FG OVC002
     FM211400 VRB03KT 3SM BR OVC008
     FM211700 VRB03KT P6SM OVC018=

USA.gov is the U.S. government's official web portal to all federal, state and local government web resources and services.